sensor_id;sensor_type;location;lat;lon;timestamp;P1;durP1;ratioP1;P2;durP2;ratioP2
72941;SDS011;69665;55.822;37.330;2023-05-21T00:00:24;7.60;;;3.97;;
72941;SDS011;69665;55.822;37.330;2023-05-21T00:02:51;8.25;;;4.40;;
72941;SDS011;69665;55.822;37.330;2023-05-21T00:05:16;10.27;;;5.72;;
72941;SDS011;69665;55.822;37.330;2023-05-21T00:07:43;9.23;;;4.85;;
72941;SDS011;69665;55.822;37.330;2023-05-21T00:10:08;10.88;;;5.32;;
72941;SDS011;69665;55.822;37.330;2023-05-21T00:12:34;9.07;;;5.05;;
72941;SDS011;69665;55.822;37.330;2023-05-21T00:15:00;10.15;;;5.18;;
72941;SDS011;69665;55.822;37.330;2023-05-21T00:17:26;10.77;;;5.28;;
72941;SDS011;69665;55.822;37.330;2023-05-21T00:19:52;9.70;;;4.97;;
72941;SDS011;69665;55.822;37.330;2023-05-21T00:22:18;10.15;;;5.13;;
72941;SDS011;69665;55.822;37.330;2023-05-21T00:24:44;8.85;;;5.00;;
72941;SDS011;69665;55.822;37.330;2023-05-21T00:27:10;8.75;;;4.43;;
72941;SDS011;69665;55.822;37.330;2023-05-21T00:29:37;8.52;;;4.88;;
72941;SDS011;69665;55.822;37.330;2023-05-21T00:32:03;8.82;;;4.63;;
72941;SDS011;69665;55.822;37.330;2023-05-21T00:34:29;9.95;;;4.40;;
72941;SDS011;69665;55.822;37.330;2023-05-21T00:36:54;9.45;;;4.03;;
72941;SDS011;69665;55.822;37.330;2023-05-21T00:39:20;9.27;;;4.95;;
72941;SDS011;69665;55.822;37.330;2023-05-21T00:41:46;8.18;;;4.55;;
72941;SDS011;69665;55.822;37.330;2023-05-21T00:44:12;8.18;;;4.32;;
72941;SDS011;69665;55.822;37.330;2023-05-21T00:46:41;8.30;;;4.20;;
72941;SDS011;69665;55.822;37.330;2023-05-21T00:49:08;9.75;;;4.55;;
72941;SDS011;69665;55.822;37.330;2023-05-21T00:51:39;10.40;;;4.22;;
72941;SDS011;69665;55.822;37.330;2023-05-21T00:54:07;7.90;;;4.28;;
72941;SDS011;69665;55.822;37.330;2023-05-21T00:56:34;9.25;;;4.70;;
72941;SDS011;69665;55.822;37.330;2023-05-21T00:59:01;8.07;;;4.50;;
72941;SDS011;69665;55.822;37.330;2023-05-21T01:01:30;7.13;;;4.45;;
72941;SDS011;69665;55.822;37.330;2023-05-21T01:04:01;10.68;;;4.05;;
72941;SDS011;69665;55.822;37.330;2023-05-21T01:06:27;9.55;;;4.13;;
72941;SDS011;69665;55.822;37.330;2023-05-21T01:08:53;8.85;;;4.70;;
72941;SDS011;69665;55.822;37.330;2023-05-21T01:11:25;9.13;;;4.85;;
72941;SDS011;69665;55.822;37.330;2023-05-21T01:14:01;9.65;;;4.32;;
72941;SDS011;69665;55.822;37.330;2023-05-21T01:16:28;10.18;;;4.80;;
72941;SDS011;69665;55.822;37.330;2023-05-21T01:18:53;9.05;;;4.60;;
72941;SDS011;69665;55.822;37.330;2023-05-21T01:21:20;9.02;;;4.55;;
72941;SDS011;69665;55.822;37.330;2023-05-21T01:26:14;9.57;;;4.60;;
72941;SDS011;69665;55.822;37.330;2023-05-21T01:28:40;9.70;;;4.57;;
72941;SDS011;69665;55.822;37.330;2023-05-21T01:31:11;7.32;;;4.20;;
72941;SDS011;69665;55.822;37.330;2023-05-21T01:33:47;10.25;;;4.70;;
72941;SDS011;69665;55.822;37.330;2023-05-21T01:36:20;10.00;;;4.18;;
72941;SDS011;69665;55.822;37.330;2023-05-21T01:38:59;8.25;;;4.05;;
72941;SDS011;69665;55.822;37.330;2023-05-21T01:41:32;8.65;;;4.43;;
72941;SDS011;69665;55.822;37.330;2023-05-21T01:44:01;9.38;;;4.28;;
72941;SDS011;69665;55.822;37.330;2023-05-21T01:46:29;8.23;;;4.43;;
72941;SDS011;69665;55.822;37.330;2023-05-21T01:48:57;9.52;;;4.57;;
72941;SDS011;69665;55.822;37.330;2023-05-21T01:51:23;8.23;;;4.55;;
72941;SDS011;69665;55.822;37.330;2023-05-21T01:53:50;11.68;;;5.15;;
72941;SDS011;69665;55.822;37.330;2023-05-21T01:56:15;9.05;;;4.43;;
72941;SDS011;69665;55.822;37.330;2023-05-21T01:58:41;8.77;;;5.13;;
72941;SDS011;69665;55.822;37.330;2023-05-21T02:01:08;9.27;;;4.55;;
72941;SDS011;69665;55.822;37.330;2023-05-21T02:03:33;8.38;;;4.70;;
72941;SDS011;69665;55.822;37.330;2023-05-21T02:05:59;10.00;;;4.53;;
72941;SDS011;69665;55.822;37.330;2023-05-21T02:08:25;7.68;;;4.05;;
72941;SDS011;69665;55.822;37.330;2023-05-21T02:10:53;8.02;;;4.45;;
72941;SDS011;69665;55.822;37.330;2023-05-21T02:13:18;8.00;;;4.60;;
72941;SDS011;69665;55.822;37.330;2023-05-21T02:15:45;7.78;;;4.68;;
72941;SDS011;69665;55.822;37.330;2023-05-21T02:18:11;7.38;;;4.10;;
72941;SDS011;69665;55.822;37.330;2023-05-21T02:21:00;9.48;;;4.70;;
72941;SDS011;69665;55.822;37.330;2023-05-21T02:23:26;8.05;;;4.20;;
72941;SDS011;69665;55.822;37.330;2023-05-21T02:25:51;8.18;;;4.47;;
72941;SDS011;69665;55.822;37.330;2023-05-21T02:28:17;8.35;;;4.53;;
72941;SDS011;69665;55.822;37.330;2023-05-21T02:30:43;7.72;;;4.30;;
72941;SDS011;69665;55.822;37.330;2023-05-21T02:33:08;8.73;;;4.63;;
72941;SDS011;69665;55.822;37.330;2023-05-21T02:35:38;9.60;;;4.60;;
72941;SDS011;69665;55.822;37.330;2023-05-21T02:38:04;9.23;;;5.32;;
72941;SDS011;69665;55.822;37.330;2023-05-21T02:40:29;10.10;;;5.18;;
72941;SDS011;69665;55.822;37.330;2023-05-21T02:42:56;10.32;;;5.25;;
72941;SDS011;69665;55.822;37.330;2023-05-21T02:45:22;9.48;;;4.93;;
72941;SDS011;69665;55.822;37.330;2023-05-21T02:47:48;9.18;;;4.88;;
72941;SDS011;69665;55.822;37.330;2023-05-21T02:50:16;9.18;;;5.25;;
72941;SDS011;69665;55.822;37.330;2023-05-21T02:52:48;9.55;;;4.72;;
72941;SDS011;69665;55.822;37.330;2023-05-21T02:55:13;9.20;;;4.55;;
72941;SDS011;69665;55.822;37.330;2023-05-21T02:57:39;8.65;;;4.78;;
72941;SDS011;69665;55.822;37.330;2023-05-21T03:00:05;8.57;;;4.75;;
72941;SDS011;69665;55.822;37.330;2023-05-21T03:02:32;10.18;;;5.05;;
72941;SDS011;69665;55.822;37.330;2023-05-21T03:04:58;11.35;;;5.28;;
72941;SDS011;69665;55.822;37.330;2023-05-21T03:07:24;9.88;;;5.47;;
72941;SDS011;69665;55.822;37.330;2023-05-21T03:09:50;10.52;;;5.18;;
72941;SDS011;69665;55.822;37.330;2023-05-21T03:12:16;11.00;;;5.43;;
72941;SDS011;69665;55.822;37.330;2023-05-21T03:14:41;10.52;;;5.05;;
72941;SDS011;69665;55.822;37.330;2023-05-21T03:17:08;11.20;;;5.57;;
72941;SDS011;69665;55.822;37.330;2023-05-21T03:19:40;11.50;;;5.45;;
72941;SDS011;69665;55.822;37.330;2023-05-21T03:22:09;10.85;;;5.85;;
72941;SDS011;69665;55.822;37.330;2023-05-21T03:24:38;10.95;;;5.63;;
72941;SDS011;69665;55.822;37.330;2023-05-21T03:27:05;9.48;;;5.30;;
72941;SDS011;69665;55.822;37.330;2023-05-21T03:29:33;11.38;;;6.07;;
72941;SDS011;69665;55.822;37.330;2023-05-21T03:32:01;10.40;;;5.80;;
72941;SDS011;69665;55.822;37.330;2023-05-21T03:34:26;13.55;;;6.57;;
72941;SDS011;69665;55.822;37.330;2023-05-21T03:36:52;11.50;;;6.50;;
72941;SDS011;69665;55.822;37.330;2023-05-21T03:39:19;12.80;;;6.43;;
72941;SDS011;69665;55.822;37.330;2023-05-21T03:41:45;11.48;;;6.97;;
72941;SDS011;69665;55.822;37.330;2023-05-21T03:44:34;10.70;;;6.25;;
72941;SDS011;69665;55.822;37.330;2023-05-21T03:47:15;12.35;;;6.10;;
72941;SDS011;69665;55.822;37.330;2023-05-21T03:49:41;12.48;;;6.13;;
72941;SDS011;69665;55.822;37.330;2023-05-21T03:52:07;10.27;;;6.22;;
72941;SDS011;69665;55.822;37.330;2023-05-21T03:54:33;13.52;;;6.85;;
72941;SDS011;69665;55.822;37.330;2023-05-21T03:59:28;12.48;;;5.95;;
72941;SDS011;69665;55.822;37.330;2023-05-21T04:01:54;12.38;;;6.20;;
72941;SDS011;69665;55.822;37.330;2023-05-21T04:04:19;12.40;;;6.25;;
72941;SDS011;69665;55.822;37.330;2023-05-21T04:06:45;12.38;;;6.72;;
72941;SDS011;69665;55.822;37.330;2023-05-21T04:09:12;11.15;;;6.05;;
72941;SDS011;69665;55.822;37.330;2023-05-21T04:11:38;11.70;;;6.40;;
72941;SDS011;69665;55.822;37.330;2023-05-21T04:14:04;11.00;;;6.22;;
72941;SDS011;69665;55.822;37.330;2023-05-21T04:16:29;12.15;;;6.28;;
72941;SDS011;69665;55.822;37.330;2023-05-21T04:18:55;11.18;;;6.40;;
72941;SDS011;69665;55.822;37.330;2023-05-21T04:21:22;12.35;;;6.75;;
72941;SDS011;69665;55.822;37.330;2023-05-21T04:23:48;11.20;;;6.55;;
72941;SDS011;69665;55.822;37.330;2023-05-21T04:26:28;12.27;;;6.75;;
72941;SDS011;69665;55.822;37.330;2023-05-21T04:28:58;12.43;;;6.50;;
72941;SDS011;69665;55.822;37.330;2023-05-21T04:31:28;11.35;;;6.30;;
72941;SDS011;69665;55.822;37.330;2023-05-21T04:33:55;11.10;;;6.03;;
72941;SDS011;69665;55.822;37.330;2023-05-21T04:36:21;10.25;;;6.63;;
72941;SDS011;69665;55.822;37.330;2023-05-21T04:38:46;10.13;;;6.15;;
72941;SDS011;69665;55.822;37.330;2023-05-21T04:41:12;11.23;;;6.07;;
72941;SDS011;69665;55.822;37.330;2023-05-21T04:43:38;10.27;;;5.82;;
72941;SDS011;69665;55.822;37.330;2023-05-21T04:46:09;10.98;;;5.85;;
72941;SDS011;69665;55.822;37.330;2023-05-21T04:48:35;11.57;;;5.88;;
72941;SDS011;69665;55.822;37.330;2023-05-21T04:51:01;10.02;;;6.32;;
72941;SDS011;69665;55.822;37.330;2023-05-21T04:53:30;9.48;;;5.22;;
72941;SDS011;69665;55.822;37.330;2023-05-21T04:55:55;9.88;;;5.40;;
72941;SDS011;69665;55.822;37.330;2023-05-21T04:58:23;10.02;;;5.03;;
72941;SDS011;69665;55.822;37.330;2023-05-21T05:00:49;8.63;;;4.68;;
72941;SDS011;69665;55.822;37.330;2023-05-21T05:03:16;10.57;;;5.85;;
72941;SDS011;69665;55.822;37.330;2023-05-21T05:05:42;10.90;;;5.78;;
72941;SDS011;69665;55.822;37.330;2023-05-21T05:08:08;10.15;;;5.47;;
72941;SDS011;69665;55.822;37.330;2023-05-21T05:10:33;9.35;;;5.43;;
72941;SDS011;69665;55.822;37.330;2023-05-21T05:13:00;9.77;;;4.72;;
72941;SDS011;69665;55.822;37.330;2023-05-21T05:15:27;8.57;;;4.50;;
72941;SDS011;69665;55.822;37.330;2023-05-21T05:17:53;12.02;;;5.00;;
72941;SDS011;69665;55.822;37.330;2023-05-21T05:20:18;9.23;;;4.82;;
72941;SDS011;69665;55.822;37.330;2023-05-21T05:22:44;7.85;;;4.38;;
72941;SDS011;69665;55.822;37.330;2023-05-21T05:25:11;7.85;;;4.68;;
72941;SDS011;69665;55.822;37.330;2023-05-21T05:27:37;9.73;;;4.88;;
72941;SDS011;69665;55.822;37.330;2023-05-21T05:30:03;7.28;;;4.68;;
72941;SDS011;69665;55.822;37.330;2023-05-21T05:32:30;7.57;;;4.63;;
72941;SDS011;69665;55.822;37.330;2023-05-21T05:34:56;7.03;;;4.60;;
72941;SDS011;69665;55.822;37.330;2023-05-21T05:37:22;7.93;;;4.45;;
72941;SDS011;69665;55.822;37.330;2023-05-21T05:39:47;7.90;;;4.53;;
72941;SDS011;69665;55.822;37.330;2023-05-21T05:42:13;7.75;;;4.90;;
72941;SDS011;69665;55.822;37.330;2023-05-21T05:44:39;8.00;;;4.88;;
72941;SDS011;69665;55.822;37.330;2023-05-21T05:47:09;8.43;;;5.03;;
72941;SDS011;69665;55.822;37.330;2023-05-21T05:49:36;9.32;;;4.57;;
72941;SDS011;69665;55.822;37.330;2023-05-21T05:52:02;9.63;;;5.05;;
72941;SDS011;69665;55.822;37.330;2023-05-21T05:54:28;8.20;;;3.80;;
72941;SDS011;69665;55.822;37.330;2023-05-21T05:56:55;8.73;;;4.03;;
72941;SDS011;69665;55.822;37.330;2023-05-21T05:59:21;6.97;;;3.97;;
72941;SDS011;69665;55.822;37.330;2023-05-21T06:01:49;7.00;;;3.53;;
72941;SDS011;69665;55.822;37.330;2023-05-21T06:04:15;6.97;;;4.30;;
72941;SDS011;69665;55.822;37.330;2023-05-21T06:06:40;7.80;;;4.63;;
72941;SDS011;69665;55.822;37.330;2023-05-21T06:09:07;8.23;;;4.25;;
72941;SDS011;69665;55.822;37.330;2023-05-21T06:11:32;5.97;;;3.63;;
72941;SDS011;69665;55.822;37.330;2023-05-21T06:13:58;8.00;;;4.22;;
72941;SDS011;69665;55.822;37.330;2023-05-21T06:16:26;7.80;;;4.53;;
72941;SDS011;69665;55.822;37.330;2023-05-21T06:18:53;8.13;;;4.32;;
72941;SDS011;69665;55.822;37.330;2023-05-21T06:21:18;10.23;;;4.47;;
72941;SDS011;69665;55.822;37.330;2023-05-21T06:23:45;8.20;;;4.20;;
72941;SDS011;69665;55.822;37.330;2023-05-21T06:26:10;7.53;;;3.92;;
72941;SDS011;69665;55.822;37.330;2023-05-21T06:28:36;8.00;;;4.13;;
72941;SDS011;69665;55.822;37.330;2023-05-21T06:31:03;7.53;;;3.83;;
72941;SDS011;69665;55.822;37.330;2023-05-21T06:33:30;7.78;;;4.32;;
72941;SDS011;69665;55.822;37.330;2023-05-21T06:35:57;7.10;;;4.38;;
72941;SDS011;69665;55.822;37.330;2023-05-21T06:38:23;9.15;;;4.57;;
72941;SDS011;69665;55.822;37.330;2023-05-21T06:40:48;8.00;;;4.70;;
72941;SDS011;69665;55.822;37.330;2023-05-21T06:43:26;9.07;;;4.50;;
72941;SDS011;69665;55.822;37.330;2023-05-21T06:46:19;9.10;;;4.03;;
72941;SDS011;69665;55.822;37.330;2023-05-21T06:48:45;9.35;;;4.50;;
72941;SDS011;69665;55.822;37.330;2023-05-21T06:51:11;7.57;;;4.32;;
72941;SDS011;69665;55.822;37.330;2023-05-21T06:53:37;7.97;;;4.40;;
72941;SDS011;69665;55.822;37.330;2023-05-21T06:56:02;7.20;;;4.07;;
72941;SDS011;69665;55.822;37.330;2023-05-21T06:58:40;7.95;;;3.72;;
72941;SDS011;69665;55.822;37.330;2023-05-21T07:01:05;7.40;;;4.22;;
72941;SDS011;69665;55.822;37.330;2023-05-21T07:03:31;8.05;;;4.03;;
72941;SDS011;69665;55.822;37.330;2023-05-21T07:05:57;4.88;;;2.63;;
72941;SDS011;69665;55.822;37.330;2023-05-21T07:08:22;7.47;;;3.22;;
72941;SDS011;69665;55.822;37.330;2023-05-21T07:10:49;6.45;;;2.67;;
72941;SDS011;69665;55.822;37.330;2023-05-21T07:13:15;7.20;;;3.35;;
72941;SDS011;69665;55.822;37.330;2023-05-21T07:15:41;6.15;;;3.00;;
72941;SDS011;69665;55.822;37.330;2023-05-21T07:18:07;6.28;;;3.10;;
72941;SDS011;69665;55.822;37.330;2023-05-21T07:20:33;6.22;;;2.88;;
72941;SDS011;69665;55.822;37.330;2023-05-21T07:23:03;7.45;;;2.80;;
72941;SDS011;69665;55.822;37.330;2023-05-21T07:25:29;5.68;;;3.03;;
72941;SDS011;69665;55.822;37.330;2023-05-21T07:27:55;6.30;;;3.28;;
72941;SDS011;69665;55.822;37.330;2023-05-21T07:30:20;6.13;;;3.00;;
72941;SDS011;69665;55.822;37.330;2023-05-21T07:32:46;6.13;;;3.10;;
72941;SDS011;69665;55.822;37.330;2023-05-21T07:35:12;8.15;;;2.95;;
72941;SDS011;69665;55.822;37.330;2023-05-21T07:37:38;6.45;;;3.15;;
72941;SDS011;69665;55.822;37.330;2023-05-21T07:40:05;7.40;;;3.45;;
72941;SDS011;69665;55.822;37.330;2023-05-21T07:42:32;5.05;;;2.58;;
72941;SDS011;69665;55.822;37.330;2023-05-21T07:44:59;4.90;;;2.47;;
72941;SDS011;69665;55.822;37.330;2023-05-21T07:47:26;4.70;;;2.42;;
72941;SDS011;69665;55.822;37.330;2023-05-21T07:49:52;5.78;;;2.38;;
72941;SDS011;69665;55.822;37.330;2023-05-21T07:52:18;5.22;;;2.80;;
72941;SDS011;69665;55.822;37.330;2023-05-21T07:54:43;6.20;;;3.42;;
72941;SDS011;69665;55.822;37.330;2023-05-21T07:57:09;4.70;;;2.83;;
72941;SDS011;69665;55.822;37.330;2023-05-21T07:59:49;4.75;;;2.65;;
72941;SDS011;69665;55.822;37.330;2023-05-21T08:02:15;4.93;;;3.05;;
72941;SDS011;69665;55.822;37.330;2023-05-21T08:04:41;5.50;;;3.10;;
72941;SDS011;69665;55.822;37.330;2023-05-21T08:07:08;5.78;;;2.85;;
72941;SDS011;69665;55.822;37.330;2023-05-21T08:09:34;4.97;;;2.92;;
72941;SDS011;69665;55.822;37.330;2023-05-21T08:12:00;6.78;;;2.67;;
72941;SDS011;69665;55.822;37.330;2023-05-21T08:14:26;9.35;;;3.25;;
72941;SDS011;69665;55.822;37.330;2023-05-21T08:16:52;8.43;;;3.45;;
72941;SDS011;69665;55.822;37.330;2023-05-21T08:19:18;7.20;;;3.28;;
72941;SDS011;69665;55.822;37.330;2023-05-21T08:21:44;6.75;;;2.85;;
72941;SDS011;69665;55.822;37.330;2023-05-21T08:24:10;7.13;;;3.35;;
72941;SDS011;69665;55.822;37.330;2023-05-21T08:26:36;6.15;;;3.17;;
72941;SDS011;69665;55.822;37.330;2023-05-21T08:29:02;5.68;;;3.10;;
72941;SDS011;69665;55.822;37.330;2023-05-21T08:31:28;7.60;;;3.17;;
72941;SDS011;69665;55.822;37.330;2023-05-21T08:33:53;6.95;;;2.83;;
72941;SDS011;69665;55.822;37.330;2023-05-21T08:36:31;6.82;;;3.03;;
72941;SDS011;69665;55.822;37.330;2023-05-21T08:39:02;5.72;;;3.00;;
72941;SDS011;69665;55.822;37.330;2023-05-21T08:41:41;7.97;;;2.92;;
72941;SDS011;69665;55.822;37.330;2023-05-21T08:44:13;7.13;;;2.88;;
72941;SDS011;69665;55.822;37.330;2023-05-21T08:46:39;5.03;;;3.10;;
72941;SDS011;69665;55.822;37.330;2023-05-21T08:49:09;6.00;;;3.33;;
72941;SDS011;69665;55.822;37.330;2023-05-21T08:51:37;6.35;;;4.07;;
72941;SDS011;69665;55.822;37.330;2023-05-21T08:54:03;7.60;;;3.30;;
72941;SDS011;69665;55.822;37.330;2023-05-21T08:56:30;6.13;;;3.35;;
72941;SDS011;69665;55.822;37.330;2023-05-21T08:58:56;5.47;;;3.40;;
72941;SDS011;69665;55.822;37.330;2023-05-21T09:01:26;6.65;;;3.28;;
72941;SDS011;69665;55.822;37.330;2023-05-21T09:03:58;6.32;;;3.47;;
72941;SDS011;69665;55.822;37.330;2023-05-21T09:06:26;9.48;;;4.65;;
72941;SDS011;69665;55.822;37.330;2023-05-21T09:08:58;18.90;;;14.32;;
72941;SDS011;69665;55.822;37.330;2023-05-21T09:11:39;10.35;;;4.70;;
72941;SDS011;69665;55.822;37.330;2023-05-21T09:14:10;5.13;;;2.95;;
72941;SDS011;69665;55.822;37.330;2023-05-21T09:17:08;6.13;;;3.63;;
72941;SDS011;69665;55.822;37.330;2023-05-21T09:19:34;7.70;;;3.33;;
72941;SDS011;69665;55.822;37.330;2023-05-21T09:22:01;5.90;;;3.15;;
72941;SDS011;69665;55.822;37.330;2023-05-21T09:24:34;6.47;;;2.97;;
72941;SDS011;69665;55.822;37.330;2023-05-21T09:26:59;8.13;;;3.05;;
72941;SDS011;69665;55.822;37.330;2023-05-21T09:29:26;6.03;;;3.33;;
72941;SDS011;69665;55.822;37.330;2023-05-21T09:31:51;6.22;;;2.83;;
72941;SDS011;69665;55.822;37.330;2023-05-21T09:34:19;6.32;;;2.85;;
72941;SDS011;69665;55.822;37.330;2023-05-21T09:36:47;5.20;;;2.70;;
72941;SDS011;69665;55.822;37.330;2023-05-21T09:39:35;8.27;;;4.10;;
72941;SDS011;69665;55.822;37.330;2023-05-21T09:42:02;6.35;;;2.70;;
72941;SDS011;69665;55.822;37.330;2023-05-21T09:44:28;5.80;;;2.63;;
72941;SDS011;69665;55.822;37.330;2023-05-21T09:46:55;6.25;;;2.85;;
72941;SDS011;69665;55.822;37.330;2023-05-21T09:49:23;5.80;;;2.38;;
72941;SDS011;69665;55.822;37.330;2023-05-21T09:51:54;5.28;;;2.60;;
72941;SDS011;69665;55.822;37.330;2023-05-21T09:54:24;5.43;;;2.50;;
72941;SDS011;69665;55.822;37.330;2023-05-21T09:56:50;5.35;;;2.45;;
72941;SDS011;69665;55.822;37.330;2023-05-21T09:59:17;8.43;;;3.08;;
72941;SDS011;69665;55.822;37.330;2023-05-21T10:01:44;6.32;;;2.45;;
72941;SDS011;69665;55.822;37.330;2023-05-21T10:04:10;8.55;;;3.00;;
72941;SDS011;69665;55.822;37.330;2023-05-21T10:06:36;7.57;;;2.72;;
72941;SDS011;69665;55.822;37.330;2023-05-21T10:09:10;4.78;;;2.47;;
72941;SDS011;69665;55.822;37.330;2023-05-21T10:11:37;5.82;;;2.92;;
72941;SDS011;69665;55.822;37.330;2023-05-21T10:14:08;6.72;;;3.28;;
72941;SDS011;69665;55.822;37.330;2023-05-21T10:16:45;6.22;;;2.88;;
72941;SDS011;69665;55.822;37.330;2023-05-21T10:19:12;5.45;;;2.72;;
72941;SDS011;69665;55.822;37.330;2023-05-21T10:21:39;5.88;;;2.60;;
72941;SDS011;69665;55.822;37.330;2023-05-21T10:24:09;7.40;;;2.97;;
72941;SDS011;69665;55.822;37.330;2023-05-21T10:26:35;5.68;;;2.63;;
72941;SDS011;69665;55.822;37.330;2023-05-21T10:29:02;14.48;;;5.78;;
72941;SDS011;69665;55.822;37.330;2023-05-21T10:31:28;8.43;;;2.90;;
72941;SDS011;69665;55.822;37.330;2023-05-21T10:33:54;5.45;;;2.75;;
72941;SDS011;69665;55.822;37.330;2023-05-21T10:36:20;4.88;;;2.47;;
72941;SDS011;69665;55.822;37.330;2023-05-21T10:38:47;6.78;;;3.08;;
72941;SDS011;69665;55.822;37.330;2023-05-21T10:41:14;6.82;;;2.80;;
72941;SDS011;69665;55.822;37.330;2023-05-21T10:46:46;5.55;;;2.97;;
72941;SDS011;69665;55.822;37.330;2023-05-21T10:51:58;7.13;;;3.17;;
72941;SDS011;69665;55.822;37.330;2023-05-21T10:54:36;7.43;;;3.03;;
72941;SDS011;69665;55.822;37.330;2023-05-21T10:59:42;5.22;;;2.65;;
72941;SDS011;69665;55.822;37.330;2023-05-21T11:02:10;6.10;;;2.90;;
72941;SDS011;69665;55.822;37.330;2023-05-21T11:04:38;6.65;;;3.13;;
72941;SDS011;69665;55.822;37.330;2023-05-21T11:09:33;5.68;;;2.55;;
72941;SDS011;69665;55.822;37.330;2023-05-21T11:11:59;8.15;;;3.08;;
72941;SDS011;69665;55.822;37.330;2023-05-21T11:17:34;8.05;;;3.58;;
72941;SDS011;69665;55.822;37.330;2023-05-21T11:20:12;8.93;;;2.90;;
72941;SDS011;69665;55.822;37.330;2023-05-21T11:22:41;5.60;;;3.00;;
72941;SDS011;69665;55.822;37.330;2023-05-21T11:25:07;7.15;;;2.80;;
72941;SDS011;69665;55.822;37.330;2023-05-21T11:29:58;5.95;;;2.80;;
72941;SDS011;69665;55.822;37.330;2023-05-21T11:32:25;7.15;;;3.50;;
72941;SDS011;69665;55.822;37.330;2023-05-21T11:34:50;7.75;;;3.10;;
72941;SDS011;69665;55.822;37.330;2023-05-21T11:39:48;6.07;;;3.28;;
72941;SDS011;69665;55.822;37.330;2023-05-21T11:44:59;8.98;;;3.67;;
72941;SDS011;69665;55.822;37.330;2023-05-21T11:47:29;8.45;;;3.67;;
72941;SDS011;69665;55.822;37.330;2023-05-21T11:49:57;7.07;;;3.25;;
72941;SDS011;69665;55.822;37.330;2023-05-21T11:52:24;6.38;;;2.92;;
72941;SDS011;69665;55.822;37.330;2023-05-21T11:54:53;7.78;;;3.40;;
72941;SDS011;69665;55.822;37.330;2023-05-21T11:57:28;7.15;;;3.10;;
72941;SDS011;69665;55.822;37.330;2023-05-21T11:59:57;5.75;;;2.85;;
72941;SDS011;69665;55.822;37.330;2023-05-21T12:02:24;7.10;;;2.40;;
72941;SDS011;69665;55.822;37.330;2023-05-21T12:04:54;6.15;;;2.63;;
72941;SDS011;69665;55.822;37.330;2023-05-21T12:07:25;6.15;;;2.80;;
72941;SDS011;69665;55.822;37.330;2023-05-21T12:09:53;7.75;;;3.00;;
72941;SDS011;69665;55.822;37.330;2023-05-21T12:12:21;5.68;;;3.05;;
72941;SDS011;69665;55.822;37.330;2023-05-21T12:14:49;5.93;;;2.70;;
72941;SDS011;69665;55.822;37.330;2023-05-21T12:17:17;4.72;;;2.30;;
72941;SDS011;69665;55.822;37.330;2023-05-21T12:19:45;6.00;;;2.58;;
72941;SDS011;69665;55.822;37.330;2023-05-21T12:22:11;6.63;;;2.70;;
72941;SDS011;69665;55.822;37.330;2023-05-21T12:24:39;5.72;;;2.67;;
72941;SDS011;69665;55.822;37.330;2023-05-21T12:27:05;6.65;;;2.53;;
72941;SDS011;69665;55.822;37.330;2023-05-21T12:29:34;6.35;;;3.42;;
72941;SDS011;69665;55.822;37.330;2023-05-21T12:32:03;7.20;;;4.00;;
72941;SDS011;69665;55.822;37.330;2023-05-21T12:34:36;9.40;;;4.32;;
72941;SDS011;69665;55.822;37.330;2023-05-21T12:39:43;8.82;;;3.90;;
72941;SDS011;69665;55.822;37.330;2023-05-21T12:42:10;7.30;;;3.92;;
72941;SDS011;69665;55.822;37.330;2023-05-21T12:44:37;10.23;;;5.30;;
72941;SDS011;69665;55.822;37.330;2023-05-21T12:47:03;7.00;;;3.78;;
72941;SDS011;69665;55.822;37.330;2023-05-21T12:49:36;7.45;;;4.07;;
72941;SDS011;69665;55.822;37.330;2023-05-21T12:52:13;9.23;;;4.03;;
72941;SDS011;69665;55.822;37.330;2023-05-21T12:54:40;9.05;;;3.85;;
72941;SDS011;69665;55.822;37.330;2023-05-21T12:59:56;8.13;;;3.17;;
72941;SDS011;69665;55.822;37.330;2023-05-21T13:02:38;7.00;;;3.03;;
72941;SDS011;69665;55.822;37.330;2023-05-21T13:05:09;5.93;;;3.10;;
72941;SDS011;69665;55.822;37.330;2023-05-21T13:07:40;7.25;;;2.95;;
72941;SDS011;69665;55.822;37.330;2023-05-21T13:10:08;7.13;;;3.28;;
72941;SDS011;69665;55.822;37.330;2023-05-21T13:12:34;5.28;;;1.95;;
72941;SDS011;69665;55.822;37.330;2023-05-21T13:15:00;4.78;;;2.08;;
72941;SDS011;69665;55.822;37.330;2023-05-21T13:17:29;3.35;;;1.67;;
72941;SDS011;69665;55.822;37.330;2023-05-21T13:20:05;3.45;;;1.50;;
72941;SDS011;69665;55.822;37.330;2023-05-21T13:22:43;3.88;;;1.60;;
72941;SDS011;69665;55.822;37.330;2023-05-21T13:25:13;4.40;;;1.60;;
72941;SDS011;69665;55.822;37.330;2023-05-21T13:27:46;5.20;;;1.63;;
72941;SDS011;69665;55.822;37.330;2023-05-21T13:30:12;5.53;;;1.95;;
72941;SDS011;69665;55.822;37.330;2023-05-21T13:32:38;5.10;;;1.80;;
72941;SDS011;69665;55.822;37.330;2023-05-21T13:35:05;4.15;;;1.90;;
72941;SDS011;69665;55.822;37.330;2023-05-21T13:37:34;3.17;;;1.50;;
72941;SDS011;69665;55.822;37.330;2023-05-21T13:40:03;4.70;;;1.88;;
72941;SDS011;69665;55.822;37.330;2023-05-21T13:42:30;5.10;;;2.13;;
72941;SDS011;69665;55.822;37.330;2023-05-21T13:44:56;5.45;;;2.22;;
72941;SDS011;69665;55.822;37.330;2023-05-21T13:47:22;5.53;;;2.38;;
72941;SDS011;69665;55.822;37.330;2023-05-21T13:49:48;6.95;;;2.13;;
72941;SDS011;69665;55.822;37.330;2023-05-21T13:52:14;5.20;;;2.00;;
72941;SDS011;69665;55.822;37.330;2023-05-21T13:54:41;5.47;;;2.22;;
72941;SDS011;69665;55.822;37.330;2023-05-21T13:57:07;4.68;;;2.03;;
72941;SDS011;69665;55.822;37.330;2023-05-21T13:59:32;5.90;;;2.42;;
72941;SDS011;69665;55.822;37.330;2023-05-21T14:01:58;12.07;;;6.50;;
72941;SDS011;69665;55.822;37.330;2023-05-21T14:04:24;5.43;;;2.33;;
72941;SDS011;69665;55.822;37.330;2023-05-21T14:06:50;6.00;;;1.90;;
72941;SDS011;69665;55.822;37.330;2023-05-21T14:09:16;5.43;;;2.00;;
72941;SDS011;69665;55.822;37.330;2023-05-21T14:11:42;5.80;;;2.00;;
72941;SDS011;69665;55.822;37.330;2023-05-21T14:14:08;4.35;;;1.83;;
72941;SDS011;69665;55.822;37.330;2023-05-21T14:16:34;4.60;;;2.38;;
72941;SDS011;69665;55.822;37.330;2023-05-21T14:18:59;3.83;;;1.85;;
72941;SDS011;69665;55.822;37.330;2023-05-21T14:21:25;6.93;;;1.95;;
72941;SDS011;69665;55.822;37.330;2023-05-21T14:23:51;6.00;;;2.05;;
72941;SDS011;69665;55.822;37.330;2023-05-21T14:26:16;8.70;;;1.95;;
72941;SDS011;69665;55.822;37.330;2023-05-21T14:28:43;5.78;;;2.30;;
72941;SDS011;69665;55.822;37.330;2023-05-21T14:31:09;3.90;;;1.85;;
72941;SDS011;69665;55.822;37.330;2023-05-21T14:33:36;4.38;;;2.00;;
72941;SDS011;69665;55.822;37.330;2023-05-21T14:36:03;6.85;;;2.22;;
72941;SDS011;69665;55.822;37.330;2023-05-21T14:38:29;5.45;;;2.00;;
72941;SDS011;69665;55.822;37.330;2023-05-21T14:40:55;5.85;;;2.33;;
72941;SDS011;69665;55.822;37.330;2023-05-21T14:43:20;7.70;;;2.65;;
72941;SDS011;69665;55.822;37.330;2023-05-21T14:45:47;5.30;;;2.15;;
72941;SDS011;69665;55.822;37.330;2023-05-21T14:48:16;5.00;;;2.03;;
72941;SDS011;69665;55.822;37.330;2023-05-21T14:50:42;5.45;;;2.30;;
72941;SDS011;69665;55.822;37.330;2023-05-21T14:53:09;6.88;;;2.80;;
72941;SDS011;69665;55.822;37.330;2023-05-21T14:55:36;8.90;;;2.30;;
72941;SDS011;69665;55.822;37.330;2023-05-21T14:58:03;5.65;;;2.33;;
72941;SDS011;69665;55.822;37.330;2023-05-21T15:00:29;6.40;;;2.35;;
72941;SDS011;69665;55.822;37.330;2023-05-21T15:02:56;5.75;;;2.50;;
72941;SDS011;69665;55.822;37.330;2023-05-21T15:05:22;5.07;;;2.53;;